Kathy C — 2CTI7 — position and weather

sailwx.info

Track history (hours):
 
Tides and Currents Weather Stations Pressure Air Temp Water Temp Dewpoint Dewpoint Depression Visibility Wind Speed Wind Dir Waves Ship Positions

Kathy C

Last reported at 2014-Sep-28 17:33 UTC. Time now 2014-Oct-01 20:20 UTC.
Position N 47°53' W 006°43'.

Length 106 m; draft 6 m.

Type: Cargo ship. MMSI: 235075591.

Date/timePositionNaut miles runAvg speedWind from/ knotsBaromVisibWave heightAir tempDewpointWater temp
2014-Sep-28 17:33N 47°53' W 006°43'20 9.8
2014-Sep-28 15:33N 48°10' W 006°29'1010.0
2014-Sep-28 14:33N 48°19' W 006°21'1110.7
2014-Sep-28 13:33N 48°28' W 006°14'1111.5
2014-Sep-28 12:33N 48°38' W 006°04'8310.3
2014-Sep-28 04:33N 49°27' W 004°22'3411.3
2014-Sep-28 01:33N 49°44' W 003°37'16110.5
2014-Sep-27 10:15N 50°36' E 000°20'6 8.9
2014-Sep-27 09:33N 50°38' E 000°29'1010.1
2014-Sep-27 08:33N 50°43' E 000°43'3712.4
2014-Sep-27 05:33N 51°05' E 001°30'1110.6
2014-Sep-27 04:33N 51°12' E 001°43'9 9.4
2014-Sep-27 03:33N 51°20' E 001°51'9 9.0
2014-Sep-27 02:33N 51°28' E 001°58'10 9.4
2014-Sep-27 01:33N 51°35' E 002°07'1010.2
2014-Sep-27 00:33N 51°42' E 002°19'1211.6
2014-Sep-26 23:32N 51°51' E 002°32'12910.6
2014-Sep-26 11:23N 53°31' E 004°48'810.2
2014-Sep-26 10:33N 53°34' E 005°01'9 9.5
2014-Sep-26 09:33N 53°37' E 005°16'9 8.7
2014-Sep-26 08:33N 53°40' E 005°30'9 8.7
2014-Sep-26 07:33N 53°42' E 005°44'9 8.8
2014-Sep-26 06:33N 53°45' E 005°58'5510.2
2014-Sep-26 01:09N 53°60' E 007°29'5 9.1
2014-Sep-26 00:33N 54°01' E 007°37'8 8.0
2014-Sep-25 23:34N 54°01' E 007°51'8 8.3
2014-Sep-25 22:33N 54°01' E 008°05'8 8.0
2014-Sep-25 21:33N 54°00' E 008°19'8 7.5
2014-Sep-25 20:33N 53°58' E 008°31'1211.7
2014-Sep-25 19:33N 53°51' E 008°46'1312.7
2014-Sep-25 18:33N 53°53' E 009°08'3 2.6
2014-Sep-25 17:33N 53°55' E 009°11'28 7.0
2014-Sep-25 13:34N 54°17' E 009°39'8 7.5
2014-Sep-25 12:33N 54°22' E 009°50'6 5.3
2014-Sep-25 11:29N 54°21' E 009°59'5 5.3
2014-Sep-25 10:33N 54°22' E 010°07'34 5.3
2014-Sep-25 04:16N 54°36' E 011°00'9 9.1
2014-Sep-25 03:13N 54°34' E 011°16'710.0
2014-Sep-25 02:33N 54°32' E 011°27'1110.6
2014-Sep-25 01:33N 54°27' E 011°44'1010.4
2014-Sep-25 00:33N 54°27' E 012°01'9 8.8
2014-Sep-24 23:33N 54°33' E 012°13'12 9.8
2014-Sep-24 22:20N 54°41' E 012°27'8 9.7
2014-Sep-24 21:31N 54°46' E 012°38'9 9.7
2014-Sep-24 20:33N 54°47' E 012°54'1110.5
2014-Sep-24 19:33N 54°46' E 013°13'1110.9
2014-Sep-24 18:33N 54°46' E 013°31'1110.7
2014-Sep-24 17:33N 54°44' E 013°50'1110.9
2014-Sep-24 16:33N 54°41' E 014°08'11610.2
2014-Sep-24 05:08N 54°55' E 017°27'710.3
2014-Sep-24 04:27N 54°56' E 017°39'1010.7
2014-Sep-24 03:33N 54°56' E 017°56'1110.6
2014-Sep-24 02:33N 54°57' E 018°15'1010.3
2014-Sep-24 01:33N 54°57' E 018°33'10 9.5
2014-Sep-24 00:33N 54°52' E 018°47'9 9.0
2014-Sep-23 23:33N 54°46' E 018°58'9 8.8
2014-Sep-23 22:33N 54°37' E 018°56'9 9.4
2014-Sep-23 21:34N 54°30' E 018°45'6 6.3
2014-Sep-23 20:33N 54°24' E 018°41'0 0.0
2014-Sep-23 19:32N 54°24' E 018°41'0 0.0
2014-Sep-23 18:29N 54°24' E 018°41'0 0.0
2014-Sep-23 17:29N 54°24' E 018°41'0 0.0
2014-Sep-23 16:32N 54°24' E 018°41'0 0.0
2014-Sep-23 15:32N 54°24' E 018°41'0 0.0
2014-Sep-23 14:32N 54°24' E 018°41'0 0.0
2014-Sep-23 13:32N 54°24' E 018°41'0 0.0
2014-Sep-23 12:29N 54°24' E 018°41'0 0.0
2014-Sep-23 11:32N 54°24' E 018°41'0 0.0
2014-Sep-23 10:32N 54°24' E 018°41'0 0.0
2014-Sep-23 09:32N 54°24' E 018°41'0 0.0
2014-Sep-23 08:32N 54°24' E 018°41'0 0.0
2014-Sep-23 07:32N 54°24' E 018°41'0 0.0
2014-Sep-23 06:32N 54°24' E 018°41'0 0.0
2014-Sep-23 05:32N 54°24' E 018°41'0 0.0
2014-Sep-23 04:32N 54°24' E 018°41'0 0.0
2014-Sep-23 03:32N 54°24' E 018°41'0 0.0
2014-Sep-23 02:32N 54°24' E 018°41'0 0.0
2014-Sep-23 01:32N 54°24' E 018°41'0 0.0
2014-Sep-23 00:32N 54°24' E 018°41'0 0.0
2014-Sep-22 23:32N 54°24' E 018°41'0 0.0
2014-Sep-22 22:32N 54°24' E 018°41'0 0.0
2014-Sep-22 21:32N 54°24' E 018°41'0 0.0
2014-Sep-22 20:32N 54°24' E 018°41'0 0.0
2014-Sep-22 19:32N 54°24' E 018°41'0 0.0
2014-Sep-22 18:32N 54°24' E 018°41'0 0.0
2014-Sep-22 17:32N 54°24' E 018°41'0 0.0
2014-Sep-22 16:32N 54°24' E 018°41'0 0.0
2014-Sep-22 15:33N 54°24' E 018°41'1 0.6
2014-Sep-22 14:33N 54°24' E 018°40'7 6.7
2014-Sep-22 13:33N 54°30' E 018°45'1110.7
2014-Sep-22 12:33N 54°39' E 018°55'1110.8
2014-Sep-22 11:33N 54°49' E 019°02'1110.8
2014-Sep-22 10:33N 54°59' E 019°09'  
Track history (hours):
 
Tides and Currents Weather Stations Pressure Air Temp Water Temp Dewpoint Dewpoint Depression Visibility Wind Speed Wind Dir Waves Ship Positions

Kathy C

Last reported at 2014-Sep-28 17:33 UTC. Time now 2014-Oct-01 20:20 UTC.
Position N 47°53' W 006°43'.

Length 106 m; draft 6 m.

Type: Cargo ship. MMSI: 235075591.

Date/timePositionNaut miles runAvg speedWind from/ knotsBaromVisibWave heightAir tempDewpointWater temp
2014-Sep-28 17:33N 47°53' W 006°43'20 9.8
2014-Sep-28 15:33N 48°10' W 006°29'1010.0
2014-Sep-28 14:33N 48°19' W 006°21'1110.7
2014-Sep-28 13:33N 48°28' W 006°14'1111.5
2014-Sep-28 12:33N 48°38' W 006°04'8310.3
2014-Sep-28 04:33N 49°27' W 004°22'3411.3
2014-Sep-28 01:33N 49°44' W 003°37'16110.5
2014-Sep-27 10:15N 50°36' E 000°20'6 8.9
2014-Sep-27 09:33N 50°38' E 000°29'1010.1
2014-Sep-27 08:33N 50°43' E 000°43'3712.4
2014-Sep-27 05:33N 51°05' E 001°30'1110.6
2014-Sep-27 04:33N 51°12' E 001°43'9 9.4
2014-Sep-27 03:33N 51°20' E 001°51'9 9.0
2014-Sep-27 02:33N 51°28' E 001°58'10 9.4
2014-Sep-27 01:33N 51°35' E 002°07'1010.2
2014-Sep-27 00:33N 51°42' E 002°19'1211.6
2014-Sep-26 23:32N 51°51' E 002°32'12910.6
2014-Sep-26 11:23N 53°31' E 004°48'810.2
2014-Sep-26 10:33N 53°34' E 005°01'9 9.5
2014-Sep-26 09:33N 53°37' E 005°16'9 8.7
2014-Sep-26 08:33N 53°40' E 005°30'9 8.7
2014-Sep-26 07:33N 53°42' E 005°44'9 8.8
2014-Sep-26 06:33N 53°45' E 005°58'5510.2
2014-Sep-26 01:09N 53°60' E 007°29'5 9.1
2014-Sep-26 00:33N 54°01' E 007°37'8 8.0
2014-Sep-25 23:34N 54°01' E 007°51'8 8.3
2014-Sep-25 22:33N 54°01' E 008°05'8 8.0
2014-Sep-25 21:33N 54°00' E 008°19'8 7.5
2014-Sep-25 20:33N 53°58' E 008°31'1211.7
2014-Sep-25 19:33N 53°51' E 008°46'1312.7
2014-Sep-25 18:33N 53°53' E 009°08'3 2.6
2014-Sep-25 17:33N 53°55' E 009°11'28 7.0
2014-Sep-25 13:34N 54°17' E 009°39'8 7.5
2014-Sep-25 12:33N 54°22' E 009°50'6 5.3
2014-Sep-25 11:29N 54°21' E 009°59'5 5.3
2014-Sep-25 10:33N 54°22' E 010°07'34 5.3
2014-Sep-25 04:16N 54°36' E 011°00'9 9.1
2014-Sep-25 03:13N 54°34' E 011°16'710.0
2014-Sep-25 02:33N 54°32' E 011°27'1110.6
2014-Sep-25 01:33N 54°27' E 011°44'1010.4
2014-Sep-25 00:33N 54°27' E 012°01'9 8.8
2014-Sep-24 23:33N 54°33' E 012°13'12 9.8
2014-Sep-24 22:20N 54°41' E 012°27'8 9.7
2014-Sep-24 21:31N 54°46' E 012°38'9 9.7
2014-Sep-24 20:33N 54°47' E 012°54'1110.5
2014-Sep-24 19:33N 54°46' E 013°13'1110.9
2014-Sep-24 18:33N 54°46' E 013°31'1110.7
2014-Sep-24 17:33N 54°44' E 013°50'1110.9
2014-Sep-24 16:33N 54°41' E 014°08'11610.2
2014-Sep-24 05:08N 54°55' E 017°27'710.3
2014-Sep-24 04:27N 54°56' E 017°39'1010.7
2014-Sep-24 03:33N 54°56' E 017°56'1110.6
2014-Sep-24 02:33N 54°57' E 018°15'1010.3
2014-Sep-24 01:33N 54°57' E 018°33'10 9.5
2014-Sep-24 00:33N 54°52' E 018°47'9 9.0
2014-Sep-23 23:33N 54°46' E 018°58'9 8.8
2014-Sep-23 22:33N 54°37' E 018°56'9 9.4
2014-Sep-23 21:34N 54°30' E 018°45'6 6.3
2014-Sep-23 20:33N 54°24' E 018°41'0 0.0
2014-Sep-23 19:32N 54°24' E 018°41'0 0.0
2014-Sep-23 18:29N 54°24' E 018°41'0 0.0
2014-Sep-23 17:29N 54°24' E 018°41'0 0.0
2014-Sep-23 16:32N 54°24' E 018°41'0 0.0
2014-Sep-23 15:32N 54°24' E 018°41'0 0.0
2014-Sep-23 14:32N 54°24' E 018°41'0 0.0
2014-Sep-23 13:32N 54°24' E 018°41'0 0.0
2014-Sep-23 12:29N 54°24' E 018°41'0 0.0
2014-Sep-23 11:32N 54°24' E 018°41'0 0.0
2014-Sep-23 10:32N 54°24' E 018°41'0 0.0
2014-Sep-23 09:32N 54°24' E 018°41'0 0.0
2014-Sep-23 08:32N 54°24' E 018°41'0 0.0
2014-Sep-23 07:32N 54°24' E 018°41'0 0.0
2014-Sep-23 06:32N 54°24' E 018°41'0 0.0
2014-Sep-23 05:32N 54°24' E 018°41'0 0.0
2014-Sep-23 04:32N 54°24' E 018°41'0 0.0
2014-Sep-23 03:32N 54°24' E 018°41'0 0.0
2014-Sep-23 02:32N 54°24' E 018°41'0 0.0
2014-Sep-23 01:32N 54°24' E 018°41'0 0.0
2014-Sep-23 00:32N 54°24' E 018°41'0 0.0
2014-Sep-22 23:32N 54°24' E 018°41'0 0.0
2014-Sep-22 22:32N 54°24' E 018°41'0 0.0
2014-Sep-22 21:32N 54°24' E 018°41'0 0.0
2014-Sep-22 20:32N 54°24' E 018°41'0 0.0
2014-Sep-22 19:32N 54°24' E 018°41'0 0.0
2014-Sep-22 18:32N 54°24' E 018°41'0 0.0
2014-Sep-22 17:32N 54°24' E 018°41'0 0.0
2014-Sep-22 16:32N 54°24' E 018°41'0 0.0
2014-Sep-22 15:33N 54°24' E 018°41'1 0.6
2014-Sep-22 14:33N 54°24' E 018°40'7 6.7
2014-Sep-22 13:33N 54°30' E 018°45'1110.7
2014-Sep-22 12:33N 54°39' E 018°55'1110.8
2014-Sep-22 11:33N 54°49' E 019°02'1110.8
2014-Sep-22 10:33N 54°59' E 019°09'  

Dump ship's entire track history